sensor_id;sensor_type;location;lat;lon;timestamp;P1;durP1;ratioP1;P2;durP2;ratioP2
85670;SDS011;76102;50.890;3.932;2024-01-30T00:00:20;6.80;;;5.75;;
85670;SDS011;76102;50.890;3.932;2024-01-30T00:02:46;11.38;;;7.68;;
85670;SDS011;76102;50.890;3.932;2024-01-30T00:05:14;11.35;;;8.45;;
85670;SDS011;76102;50.890;3.932;2024-01-30T00:07:40;9.85;;;7.63;;
85670;SDS011;76102;50.890;3.932;2024-01-30T00:10:06;13.10;;;8.52;;
85670;SDS011;76102;50.890;3.932;2024-01-30T00:12:34;8.93;;;7.93;;
85670;SDS011;76102;50.890;3.932;2024-01-30T00:15:02;9.70;;;7.63;;
85670;SDS011;76102;50.890;3.932;2024-01-30T00:17:31;9.10;;;7.53;;
85670;SDS011;76102;50.890;3.932;2024-01-30T00:19:57;10.88;;;7.47;;
85670;SDS011;76102;50.890;3.932;2024-01-30T00:22:23;10.38;;;7.97;;
85670;SDS011;76102;50.890;3.932;2024-01-30T00:24:53;10.23;;;7.80;;
85670;SDS011;76102;50.890;3.932;2024-01-30T00:27:19;10.20;;;7.70;;
85670;SDS011;76102;50.890;3.932;2024-01-30T00:29:45;10.88;;;7.68;;
85670;SDS011;76102;50.890;3.932;2024-01-30T00:32:13;10.25;;;7.43;;
85670;SDS011;76102;50.890;3.932;2024-01-30T00:34:38;10.52;;;7.32;;
85670;SDS011;76102;50.890;3.932;2024-01-30T00:37:06;10.60;;;7.43;;
85670;SDS011;76102;50.890;3.932;2024-01-30T00:39:32;14.85;;;8.27;;
85670;SDS011;76102;50.890;3.932;2024-01-30T00:41:57;11.88;;;8.13;;
85670;SDS011;76102;50.890;3.932;2024-01-30T00:44:26;8.73;;;7.68;;
85670;SDS011;76102;50.890;3.932;2024-01-30T00:46:53;9.32;;;7.57;;
85670;SDS011;76102;50.890;3.932;2024-01-30T00:49:22;10.45;;;8.02;;
85670;SDS011;76102;50.890;3.932;2024-01-30T00:51:50;11.45;;;7.82;;
85670;SDS011;76102;50.890;3.932;2024-01-30T00:54:17;6.90;;;4.25;;
85670;SDS011;76102;50.890;3.932;2024-01-30T00:56:43;13.07;;;7.55;;
85670;SDS011;76102;50.890;3.932;2024-01-30T00:59:11;10.52;;;8.23;;
85670;SDS011;76102;50.890;3.932;2024-01-30T01:01:41;12.50;;;8.10;;
85670;SDS011;76102;50.890;3.932;2024-01-30T01:04:07;12.25;;;7.80;;
85670;SDS011;76102;50.890;3.932;2024-01-30T01:06:32;12.70;;;8.05;;
85670;SDS011;76102;50.890;3.932;2024-01-30T01:09:00;9.32;;;7.50;;
85670;SDS011;76102;50.890;3.932;2024-01-30T01:11:27;12.55;;;8.18;;
85670;SDS011;76102;50.890;3.932;2024-01-30T01:13:55;13.77;;;7.55;;
85670;SDS011;76102;50.890;3.932;2024-01-30T01:16:21;8.48;;;7.32;;
85670;SDS011;76102;50.890;3.932;2024-01-30T01:18:46;11.50;;;7.95;;
85670;SDS011;76102;50.890;3.932;2024-01-30T01:21:14;13.18;;;8.10;;
85670;SDS011;76102;50.890;3.932;2024-01-30T01:23:40;9.95;;;7.05;;
85670;SDS011;76102;50.890;3.932;2024-01-30T01:26:07;8.75;;;7.00;;
85670;SDS011;76102;50.890;3.932;2024-01-30T01:28:35;9.52;;;7.32;;
85670;SDS011;76102;50.890;3.932;2024-01-30T01:31:07;10.50;;;7.50;;
85670;SDS011;76102;50.890;3.932;2024-01-30T01:33:35;10.85;;;8.05;;
85670;SDS011;76102;50.890;3.932;2024-01-30T01:36:02;10.27;;;6.93;;
85670;SDS011;76102;50.890;3.932;2024-01-30T01:38:34;10.95;;;7.78;;
85670;SDS011;76102;50.890;3.932;2024-01-30T01:41:02;10.70;;;7.25;;
85670;SDS011;76102;50.890;3.932;2024-01-30T01:43:27;8.38;;;7.32;;
85670;SDS011;76102;50.890;3.932;2024-01-30T01:45:55;12.38;;;8.18;;
85670;SDS011;76102;50.890;3.932;2024-01-30T01:48:21;8.77;;;7.25;;
85670;SDS011;76102;50.890;3.932;2024-01-30T01:50:49;13.73;;;7.60;;
85670;SDS011;76102;50.890;3.932;2024-01-30T01:53:17;8.55;;;7.38;;
85670;SDS011;76102;50.890;3.932;2024-01-30T01:55:47;10.13;;;7.00;;
85670;SDS011;76102;50.890;3.932;2024-01-30T01:58:14;11.48;;;7.75;;
85670;SDS011;76102;50.890;3.932;2024-01-30T02:00:40;11.90;;;7.60;;
85670;SDS011;76102;50.890;3.932;2024-01-30T02:03:08;10.57;;;7.28;;
85670;SDS011;76102;50.890;3.932;2024-01-30T02:05:36;10.52;;;6.88;;
85670;SDS011;76102;50.890;3.932;2024-01-30T02:08:05;10.93;;;7.32;;
85670;SDS011;76102;50.890;3.932;2024-01-30T02:10:31;8.48;;;7.00;;
85670;SDS011;76102;50.890;3.932;2024-01-30T02:13:00;13.02;;;8.00;;
85670;SDS011;76102;50.890;3.932;2024-01-30T02:15:30;11.80;;;7.28;;
85670;SDS011;76102;50.890;3.932;2024-01-30T02:17:58;9.75;;;7.03;;
85670;SDS011;76102;50.890;3.932;2024-01-30T02:20:26;11.13;;;7.40;;
85670;SDS011;76102;50.890;3.932;2024-01-30T02:22:59;8.88;;;7.32;;
85670;SDS011;76102;50.890;3.932;2024-01-30T02:25:35;11.48;;;6.97;;
85670;SDS011;76102;50.890;3.932;2024-01-30T02:28:11;11.15;;;7.63;;
85670;SDS011;76102;50.890;3.932;2024-01-30T02:30:38;8.88;;;6.68;;
85670;SDS011;76102;50.890;3.932;2024-01-30T02:33:06;11.50;;;6.93;;
85670;SDS011;76102;50.890;3.932;2024-01-30T02:35:32;8.32;;;6.70;;
85670;SDS011;76102;50.890;3.932;2024-01-30T02:38:00;9.93;;;7.32;;
85670;SDS011;76102;50.890;3.932;2024-01-30T02:40:26;9.38;;;7.22;;
85670;SDS011;76102;50.890;3.932;2024-01-30T02:42:52;9.27;;;7.40;;
85670;SDS011;76102;50.890;3.932;2024-01-30T02:45:21;9.95;;;7.25;;
85670;SDS011;76102;50.890;3.932;2024-01-30T02:47:49;10.73;;;7.55;;
85670;SDS011;76102;50.890;3.932;2024-01-30T02:50:19;10.27;;;7.60;;
85670;SDS011;76102;50.890;3.932;2024-01-30T02:52:47;8.93;;;7.07;;
85670;SDS011;76102;50.890;3.932;2024-01-30T02:55:13;11.02;;;7.43;;
85670;SDS011;76102;50.890;3.932;2024-01-30T02:57:43;13.60;;;7.25;;
85670;SDS011;76102;50.890;3.932;2024-01-30T03:00:09;9.50;;;7.63;;
85670;SDS011;76102;50.890;3.932;2024-01-30T03:02:35;10.05;;;7.53;;
85670;SDS011;76102;50.890;3.932;2024-01-30T03:05:07;8.27;;;6.47;;
85670;SDS011;76102;50.890;3.932;2024-01-30T03:07:37;10.80;;;7.13;;
85670;SDS011;76102;50.890;3.932;2024-01-30T03:10:05;8.38;;;7.13;;
85670;SDS011;76102;50.890;3.932;2024-01-30T03:12:33;7.90;;;5.88;;
85670;SDS011;76102;50.890;3.932;2024-01-30T03:15:01;9.38;;;6.93;;
85670;SDS011;76102;50.890;3.932;2024-01-30T03:17:29;12.43;;;7.40;;
85670;SDS011;76102;50.890;3.932;2024-01-30T03:19:55;11.52;;;7.43;;
85670;SDS011;76102;50.890;3.932;2024-01-30T03:22:23;8.52;;;6.82;;
85670;SDS011;76102;50.890;3.932;2024-01-30T03:24:48;8.70;;;7.03;;
85670;SDS011;76102;50.890;3.932;2024-01-30T03:27:14;10.68;;;7.57;;
85670;SDS011;76102;50.890;3.932;2024-01-30T03:29:42;12.63;;;7.20;;
85670;SDS011;76102;50.890;3.932;2024-01-30T03:32:10;9.55;;;7.20;;
85670;SDS011;76102;50.890;3.932;2024-01-30T03:34:38;9.68;;;7.25;;
85670;SDS011;76102;50.890;3.932;2024-01-30T03:37:06;9.23;;;6.65;;
85670;SDS011;76102;50.890;3.932;2024-01-30T03:39:31;8.93;;;7.25;;
85670;SDS011;76102;50.890;3.932;2024-01-30T03:41:57;9.75;;;7.18;;
85670;SDS011;76102;50.890;3.932;2024-01-30T03:44:25;10.40;;;6.72;;
85670;SDS011;76102;50.890;3.932;2024-01-30T03:46:53;8.48;;;6.32;;
85670;SDS011;76102;50.890;3.932;2024-01-30T03:49:19;11.13;;;6.95;;
85670;SDS011;76102;50.890;3.932;2024-01-30T03:51:46;10.10;;;7.10;;
85670;SDS011;76102;50.890;3.932;2024-01-30T03:54:12;10.40;;;6.78;;
85670;SDS011;76102;50.890;3.932;2024-01-30T03:56:40;8.38;;;6.43;;
85670;SDS011;76102;50.890;3.932;2024-01-30T03:59:06;9.07;;;7.47;;
85670;SDS011;76102;50.890;3.932;2024-01-30T04:01:32;9.85;;;7.20;;
85670;SDS011;76102;50.890;3.932;2024-01-30T04:04:00;11.95;;;7.00;;
85670;SDS011;76102;50.890;3.932;2024-01-30T04:06:28;13.68;;;7.25;;
85670;SDS011;76102;50.890;3.932;2024-01-30T04:08:54;11.32;;;7.47;;
85670;SDS011;76102;50.890;3.932;2024-01-30T04:11:24;12.68;;;7.35;;
85670;SDS011;76102;50.890;3.932;2024-01-30T04:13:50;12.38;;;7.40;;
85670;SDS011;76102;50.890;3.932;2024-01-30T04:16:21;9.02;;;7.05;;
85670;SDS011;76102;50.890;3.932;2024-01-30T04:18:51;9.90;;;6.22;;
85670;SDS011;76102;50.890;3.932;2024-01-30T04:21:17;7.68;;;6.85;;
85670;SDS011;76102;50.890;3.932;2024-01-30T04:23:45;10.23;;;7.00;;
85670;SDS011;76102;50.890;3.932;2024-01-30T04:26:18;8.40;;;6.93;;
85670;SDS011;76102;50.890;3.932;2024-01-30T04:28:48;9.20;;;7.50;;
85670;SDS011;76102;50.890;3.932;2024-01-30T04:31:16;9.25;;;6.30;;
85670;SDS011;76102;50.890;3.932;2024-01-30T04:33:44;11.27;;;7.45;;
85670;SDS011;76102;50.890;3.932;2024-01-30T04:36:10;11.18;;;7.68;;
85670;SDS011;76102;50.890;3.932;2024-01-30T04:38:38;10.20;;;6.95;;
85670;SDS011;76102;50.890;3.932;2024-01-30T04:41:07;6.95;;;5.78;;
85670;SDS011;76102;50.890;3.932;2024-01-30T04:43:37;8.57;;;6.75;;
85670;SDS011;76102;50.890;3.932;2024-01-30T04:46:03;10.00;;;7.10;;
85670;SDS011;76102;50.890;3.932;2024-01-30T04:48:29;11.85;;;6.95;;
85670;SDS011;76102;50.890;3.932;2024-01-30T04:50:55;8.10;;;6.43;;
85670;SDS011;76102;50.890;3.932;2024-01-30T04:53:21;7.45;;;6.43;;
85670;SDS011;76102;50.890;3.932;2024-01-30T04:55:49;9.30;;;7.13;;
85670;SDS011;76102;50.890;3.932;2024-01-30T04:58:20;10.10;;;6.25;;
85670;SDS011;76102;50.890;3.932;2024-01-30T05:00:48;8.50;;;6.30;;
85670;SDS011;76102;50.890;3.932;2024-01-30T05:05:45;8.02;;;6.38;;
85670;SDS011;76102;50.890;3.932;2024-01-30T05:08:11;11.50;;;7.45;;
85670;SDS011;76102;50.890;3.932;2024-01-30T05:10:39;8.00;;;6.07;;
85670;SDS011;76102;50.890;3.932;2024-01-30T05:13:04;9.30;;;6.85;;
85670;SDS011;76102;50.890;3.932;2024-01-30T05:15:30;8.23;;;6.53;;
85670;SDS011;76102;50.890;3.932;2024-01-30T05:17:58;11.18;;;7.03;;
85670;SDS011;76102;50.890;3.932;2024-01-30T05:20:24;8.43;;;6.68;;
85670;SDS011;76102;50.890;3.932;2024-01-30T05:22:53;9.45;;;6.43;;
85670;SDS011;76102;50.890;3.932;2024-01-30T05:25:18;9.90;;;7.45;;
85670;SDS011;76102;50.890;3.932;2024-01-30T05:27:44;9.32;;;7.28;;
85670;SDS011;76102;50.890;3.932;2024-01-30T05:30:12;10.15;;;7.47;;
85670;SDS011;76102;50.890;3.932;2024-01-30T05:32:40;10.85;;;6.97;;
85670;SDS011;76102;50.890;3.932;2024-01-30T05:35:08;9.05;;;7.68;;
85670;SDS011;76102;50.890;3.932;2024-01-30T05:37:36;8.93;;;6.88;;
85670;SDS011;76102;50.890;3.932;2024-01-30T05:40:02;12.00;;;7.70;;
85670;SDS011;76102;50.890;3.932;2024-01-30T05:42:33;10.70;;;6.95;;
85670;SDS011;76102;50.890;3.932;2024-01-30T05:45:01;11.27;;;7.45;;
85670;SDS011;76102;50.890;3.932;2024-01-30T05:47:26;10.27;;;7.80;;
85670;SDS011;76102;50.890;3.932;2024-01-30T05:49:52;10.32;;;8.10;;
85670;SDS011;76102;50.890;3.932;2024-01-30T05:52:18;13.75;;;8.00;;
85670;SDS011;76102;50.890;3.932;2024-01-30T05:54:44;11.45;;;8.18;;
85670;SDS011;76102;50.890;3.932;2024-01-30T05:57:12;13.65;;;8.30;;
85670;SDS011;76102;50.890;3.932;2024-01-30T05:59:40;11.77;;;8.15;;
85670;SDS011;76102;50.890;3.932;2024-01-30T06:02:06;10.32;;;8.40;;
85670;SDS011;76102;50.890;3.932;2024-01-30T06:04:31;8.90;;;7.60;;
85670;SDS011;76102;50.890;3.932;2024-01-30T06:06:57;9.35;;;7.60;;
85670;SDS011;76102;50.890;3.932;2024-01-30T06:09:25;8.35;;;6.13;;
85670;SDS011;76102;50.890;3.932;2024-01-30T06:11:50;13.60;;;7.25;;
85670;SDS011;76102;50.890;3.932;2024-01-30T06:14:18;10.82;;;7.50;;
85670;SDS011;76102;50.890;3.932;2024-01-30T06:16:46;11.85;;;7.90;;
85670;SDS011;76102;50.890;3.932;2024-01-30T06:19:12;11.55;;;7.43;;
85670;SDS011;76102;50.890;3.932;2024-01-30T06:21:37;11.95;;;7.50;;
85670;SDS011;76102;50.890;3.932;2024-01-30T06:24:03;10.85;;;8.25;;
85670;SDS011;76102;50.890;3.932;2024-01-30T06:26:32;12.65;;;7.78;;
85670;SDS011;76102;50.890;3.932;2024-01-30T06:29:02;9.90;;;7.80;;
85670;SDS011;76102;50.890;3.932;2024-01-30T06:31:30;11.73;;;7.28;;
85670;SDS011;76102;50.890;3.932;2024-01-30T06:33:56;11.32;;;7.00;;
85670;SDS011;76102;50.890;3.932;2024-01-30T06:36:21;10.98;;;7.60;;
85670;SDS011;76102;50.890;3.932;2024-01-30T06:38:49;11.55;;;7.80;;
85670;SDS011;76102;50.890;3.932;2024-01-30T06:41:15;10.40;;;7.00;;
85670;SDS011;76102;50.890;3.932;2024-01-30T06:43:40;8.55;;;6.90;;
85670;SDS011;76102;50.890;3.932;2024-01-30T06:46:06;10.02;;;7.97;;
85670;SDS011;76102;50.890;3.932;2024-01-30T06:48:32;12.82;;;8.40;;
85670;SDS011;76102;50.890;3.932;2024-01-30T06:51:00;9.18;;;7.47;;
85670;SDS011;76102;50.890;3.932;2024-01-30T06:53:28;12.45;;;8.57;;
85670;SDS011;76102;50.890;3.932;2024-01-30T06:55:53;9.27;;;7.30;;
85670;SDS011;76102;50.890;3.932;2024-01-30T06:58:21;10.32;;;7.28;;
85670;SDS011;76102;50.890;3.932;2024-01-30T07:00:49;11.60;;;7.45;;
85670;SDS011;76102;50.890;3.932;2024-01-30T07:03:17;11.07;;;7.28;;
85670;SDS011;76102;50.890;3.932;2024-01-30T07:05:43;9.32;;;7.82;;
85670;SDS011;76102;50.890;3.932;2024-01-30T07:08:09;10.70;;;7.65;;
85670;SDS011;76102;50.890;3.932;2024-01-30T07:10:36;9.55;;;8.18;;
85670;SDS011;76102;50.890;3.932;2024-01-30T07:13:05;15.23;;;7.93;;
85670;SDS011;76102;50.890;3.932;2024-01-30T07:15:34;14.60;;;8.05;;
85670;SDS011;76102;50.890;3.932;2024-01-30T07:18:01;8.45;;;5.95;;
85670;SDS011;76102;50.890;3.932;2024-01-30T07:20:27;12.00;;;7.97;;
85670;SDS011;76102;50.890;3.932;2024-01-30T07:22:57;10.10;;;7.50;;
85670;SDS011;76102;50.890;3.932;2024-01-30T07:25:23;9.98;;;7.22;;
85670;SDS011;76102;50.890;3.932;2024-01-30T07:27:57;9.23;;;7.35;;
85670;SDS011;76102;50.890;3.932;2024-01-30T07:30:23;9.90;;;7.65;;
85670;SDS011;76102;50.890;3.932;2024-01-30T07:32:49;10.95;;;7.60;;
85670;SDS011;76102;50.890;3.932;2024-01-30T07:35:17;11.05;;;6.28;;
85670;SDS011;76102;50.890;3.932;2024-01-30T07:37:42;9.73;;;7.32;;
85670;SDS011;76102;50.890;3.932;2024-01-30T07:40:10;10.48;;;6.15;;
85670;SDS011;76102;50.890;3.932;2024-01-30T07:42:41;10.38;;;7.28;;
85670;SDS011;76102;50.890;3.932;2024-01-30T07:45:07;11.27;;;7.65;;
85670;SDS011;76102;50.890;3.932;2024-01-30T07:47:33;12.63;;;7.70;;
85670;SDS011;76102;50.890;3.932;2024-01-30T07:49:59;13.05;;;7.40;;
85670;SDS011;76102;50.890;3.932;2024-01-30T07:52:27;9.05;;;7.38;;
85670;SDS011;76102;50.890;3.932;2024-01-30T07:54:55;9.18;;;7.55;;
85670;SDS011;76102;50.890;3.932;2024-01-30T07:57:23;12.65;;;7.82;;
85670;SDS011;76102;50.890;3.932;2024-01-30T07:59:49;11.85;;;7.93;;
85670;SDS011;76102;50.890;3.932;2024-01-30T08:02:15;7.75;;;5.72;;
85670;SDS011;76102;50.890;3.932;2024-01-30T08:04:45;15.65;;;7.95;;
85670;SDS011;76102;50.890;3.932;2024-01-30T08:07:16;15.05;;;8.68;;
85670;SDS011;76102;50.890;3.932;2024-01-30T08:09:44;11.48;;;6.95;;
85670;SDS011;76102;50.890;3.932;2024-01-30T08:12:12;8.52;;;5.40;;
85670;SDS011;76102;50.890;3.932;2024-01-30T08:14:40;11.95;;;7.90;;
85670;SDS011;76102;50.890;3.932;2024-01-30T08:17:09;12.55;;;7.32;;
85670;SDS011;76102;50.890;3.932;2024-01-30T08:19:37;11.32;;;7.75;;
85670;SDS011;76102;50.890;3.932;2024-01-30T08:22:02;12.05;;;8.00;;
85670;SDS011;76102;50.890;3.932;2024-01-30T08:24:30;10.02;;;6.63;;
85670;SDS011;76102;50.890;3.932;2024-01-30T08:26:59;11.48;;;7.38;;
85670;SDS011;76102;50.890;3.932;2024-01-30T08:29:30;11.23;;;7.10;;
85670;SDS011;76102;50.890;3.932;2024-01-30T08:31:55;10.82;;;8.00;;
85670;SDS011;76102;50.890;3.932;2024-01-30T08:34:26;10.13;;;7.53;;
85670;SDS011;76102;50.890;3.932;2024-01-30T08:36:52;15.38;;;8.68;;
85670;SDS011;76102;50.890;3.932;2024-01-30T08:41:46;9.70;;;7.63;;
85670;SDS011;76102;50.890;3.932;2024-01-30T08:44:14;12.55;;;8.15;;
85670;SDS011;76102;50.890;3.932;2024-01-30T08:46:40;11.80;;;7.70;;
85670;SDS011;76102;50.890;3.932;2024-01-30T08:49:05;12.88;;;8.40;;
85670;SDS011;76102;50.890;3.932;2024-01-30T08:51:31;13.05;;;7.18;;
85670;SDS011;76102;50.890;3.932;2024-01-30T08:53:59;11.82;;;7.75;;
85670;SDS011;76102;50.890;3.932;2024-01-30T08:56:25;14.32;;;8.65;;
85670;SDS011;76102;50.890;3.932;2024-01-30T08:58:53;14.80;;;8.95;;
85670;SDS011;76102;50.890;3.932;2024-01-30T09:01:21;15.52;;;9.18;;
85670;SDS011;76102;50.890;3.932;2024-01-30T09:03:49;11.82;;;8.93;;
85670;SDS011;76102;50.890;3.932;2024-01-30T09:06:14;14.98;;;9.27;;
85670;SDS011;76102;50.890;3.932;2024-01-30T09:08:40;19.10;;;9.93;;
85670;SDS011;76102;50.890;3.932;2024-01-30T09:11:14;14.75;;;9.30;;
85670;SDS011;76102;50.890;3.932;2024-01-30T09:13:43;15.20;;;9.13;;
85670;SDS011;76102;50.890;3.932;2024-01-30T09:16:13;14.52;;;8.80;;
85670;SDS011;76102;50.890;3.932;2024-01-30T09:18:40;10.85;;;8.30;;
85670;SDS011;76102;50.890;3.932;2024-01-30T09:21:09;16.42;;;9.32;;
85670;SDS011;76102;50.890;3.932;2024-01-30T09:23:37;17.92;;;9.20;;
85670;SDS011;76102;50.890;3.932;2024-01-30T09:26:05;12.02;;;9.07;;
85670;SDS011;76102;50.890;3.932;2024-01-30T09:28:31;15.52;;;8.45;;
85670;SDS011;76102;50.890;3.932;2024-01-30T09:31:01;16.33;;;6.72;;
85670;SDS011;76102;50.890;3.932;2024-01-30T09:33:29;14.95;;;7.45;;
85670;SDS011;76102;50.890;3.932;2024-01-30T09:35:55;12.60;;;6.70;;
85670;SDS011;76102;50.890;3.932;2024-01-30T09:38:23;12.60;;;5.72;;
85670;SDS011;76102;50.890;3.932;2024-01-30T09:40:50;10.13;;;6.07;;
85670;SDS011;76102;50.890;3.932;2024-01-30T09:43:22;13.07;;;6.38;;
85670;SDS011;76102;50.890;3.932;2024-01-30T09:45:49;9.67;;;6.93;;
85670;SDS011;76102;50.890;3.932;2024-01-30T09:48:16;13.45;;;6.10;;
85670;SDS011;76102;50.890;3.932;2024-01-30T09:50:44;11.35;;;5.88;;
85670;SDS011;76102;50.890;3.932;2024-01-30T09:53:12;10.35;;;5.82;;
85670;SDS011;76102;50.890;3.932;2024-01-30T09:55:39;9.90;;;4.97;;
85670;SDS011;76102;50.890;3.932;2024-01-30T09:58:08;9.23;;;4.75;;
85670;SDS011;76102;50.890;3.932;2024-01-30T10:00:34;8.73;;;4.30;;
85670;SDS011;76102;50.890;3.932;2024-01-30T10:03:02;7.38;;;3.60;;
85670;SDS011;76102;50.890;3.932;2024-01-30T10:05:28;6.22;;;3.17;;
85670;SDS011;76102;50.890;3.932;2024-01-30T10:08:01;7.97;;;3.35;;
85670;SDS011;76102;50.890;3.932;2024-01-30T10:10:31;7.90;;;3.15;;
85670;SDS011;76102;50.890;3.932;2024-01-30T10:12:57;6.38;;;3.00;;
85670;SDS011;76102;50.890;3.932;2024-01-30T10:15:25;4.75;;;2.50;;
85670;SDS011;76102;50.890;3.932;2024-01-30T10:17:55;4.25;;;2.58;;
85670;SDS011;76102;50.890;3.932;2024-01-30T10:20:20;6.97;;;2.38;;
85670;SDS011;76102;50.890;3.932;2024-01-30T10:22:47;6.45;;;2.85;;
85670;SDS011;76102;50.890;3.932;2024-01-30T10:25:17;5.97;;;2.60;;
85670;SDS011;76102;50.890;3.932;2024-01-30T10:27:44;6.18;;;2.90;;
85670;SDS011;76102;50.890;3.932;2024-01-30T10:30:10;6.50;;;2.60;;
85670;SDS011;76102;50.890;3.932;2024-01-30T10:32:36;5.20;;;2.63;;
85670;SDS011;76102;50.890;3.932;2024-01-30T10:35:06;4.10;;;1.75;;
85670;SDS011;76102;50.890;3.932;2024-01-30T10:37:31;5.10;;;2.25;;
85670;SDS011;76102;50.890;3.932;2024-01-30T10:40:02;4.93;;;1.58;;
85670;SDS011;76102;50.890;3.932;2024-01-30T10:42:32;3.30;;;1.40;;
85670;SDS011;76102;50.890;3.932;2024-01-30T10:45:06;6.43;;;2.05;;
85670;SDS011;76102;50.890;3.932;2024-01-30T10:47:44;3.35;;;1.20;;
85670;SDS011;76102;50.890;3.932;2024-01-30T10:50:17;2.25;;;1.15;;
85670;SDS011;76102;50.890;3.932;2024-01-30T10:52:46;4.40;;;1.38;;
85670;SDS011;76102;50.890;3.932;2024-01-30T10:55:15;7.70;;;1.23;;
85670;SDS011;76102;50.890;3.932;2024-01-30T10:57:42;5.03;;;1.05;;
85670;SDS011;76102;50.890;3.932;2024-01-30T11:00:10;4.18;;;0.88;;
85670;SDS011;76102;50.890;3.932;2024-01-30T11:02:44;2.47;;;1.17;;
85670;SDS011;76102;50.890;3.932;2024-01-30T11:05:13;4.13;;;0.88;;
85670;SDS011;76102;50.890;3.932;2024-01-30T11:07:51;2.95;;;0.85;;
85670;SDS011;76102;50.890;3.932;2024-01-30T11:10:18;3.25;;;1.00;;
85670;SDS011;76102;50.890;3.932;2024-01-30T11:12:46;0.73;;;0.50;;
85670;SDS011;76102;50.890;3.932;2024-01-30T11:15:13;2.13;;;0.80;;
85670;SDS011;76102;50.890;3.932;2024-01-30T11:17:50;4.68;;;1.20;;
85670;SDS011;76102;50.890;3.932;2024-01-30T11:20:29;1.85;;;0.85;;
85670;SDS011;76102;50.890;3.932;2024-01-30T11:23:00;1.77;;;1.05;;
85670;SDS011;76102;50.890;3.932;2024-01-30T11:25:31;2.75;;;1.15;;
85670;SDS011;76102;50.890;3.932;2024-01-30T11:27:57;2.00;;;1.00;;
85670;SDS011;76102;50.890;3.932;2024-01-30T11:30:28;2.35;;;1.00;;
85670;SDS011;76102;50.890;3.932;2024-01-30T11:33:14;4.72;;;0.90;;
85670;SDS011;76102;50.890;3.932;2024-01-30T11:35:43;2.08;;;0.82;;
85670;SDS011;76102;50.890;3.932;2024-01-30T11:38:15;4.95;;;0.85;;
85670;SDS011;76102;50.890;3.932;2024-01-30T11:40:44;3.65;;;0.80;;
85670;SDS011;76102;50.890;3.932;2024-01-30T11:43:10;2.35;;;1.17;;
85670;SDS011;76102;50.890;3.932;2024-01-30T11:45:39;4.18;;;1.23;;
85670;SDS011;76102;50.890;3.932;2024-01-30T11:48:08;1.92;;;0.68;;
85670;SDS011;76102;50.890;3.932;2024-01-30T11:50:37;4.95;;;1.25;;
85670;SDS011;76102;50.890;3.932;2024-01-30T11:53:08;6.43;;;1.15;;
85670;SDS011;76102;50.890;3.932;2024-01-30T11:55:34;3.13;;;1.02;;
85670;SDS011;76102;50.890;3.932;2024-01-30T11:58:02;2.75;;;0.82;;
85670;SDS011;76102;50.890;3.932;2024-01-30T12:00:31;2.60;;;0.90;;
85670;SDS011;76102;50.890;3.932;2024-01-30T12:02:59;3.28;;;1.20;;
85670;SDS011;76102;50.890;3.932;2024-01-30T12:07:56;2.63;;;0.75;;
85670;SDS011;76102;50.890;3.932;2024-01-30T12:10:27;3.80;;;1.08;;
85670;SDS011;76102;50.890;3.932;2024-01-30T12:12:55;2.28;;;0.90;;
85670;SDS011;76102;50.890;3.932;2024-01-30T12:15:24;4.07;;;1.60;;
85670;SDS011;76102;50.890;3.932;2024-01-30T12:17:52;3.85;;;0.93;;
85670;SDS011;76102;50.890;3.932;2024-01-30T12:20:28;5.20;;;1.92;;
85670;SDS011;76102;50.890;3.932;2024-01-30T12:22:54;3.33;;;1.15;;
85670;SDS011;76102;50.890;3.932;2024-01-30T12:25:23;1.88;;;1.05;;
85670;SDS011;76102;50.890;3.932;2024-01-30T12:27:49;5.18;;;1.17;;
85670;SDS011;76102;50.890;3.932;2024-01-30T12:30:16;4.40;;;1.25;;
85670;SDS011;76102;50.890;3.932;2024-01-30T12:32:44;2.85;;;1.13;;
85670;SDS011;76102;50.890;3.932;2024-01-30T12:35:15;6.15;;;1.35;;
85670;SDS011;76102;50.890;3.932;2024-01-30T12:37:44;2.58;;;1.00;;
85670;SDS011;76102;50.890;3.932;2024-01-30T12:40:14;9.02;;;1.05;;
85670;SDS011;76102;50.890;3.932;2024-01-30T12:42:40;3.22;;;1.02;;
85670;SDS011;76102;50.890;3.932;2024-01-30T12:45:13;3.80;;;1.67;;
85670;SDS011;76102;50.890;3.932;2024-01-30T12:47:45;8.20;;;1.35;;
85670;SDS011;76102;50.890;3.932;2024-01-30T12:50:10;2.35;;;1.20;;
85670;SDS011;76102;50.890;3.932;2024-01-30T12:52:40;5.53;;;1.23;;
85670;SDS011;76102;50.890;3.932;2024-01-30T12:55:09;4.55;;;1.05;;
85670;SDS011;76102;50.890;3.932;2024-01-30T12:57:37;3.75;;;1.33;;
85670;SDS011;76102;50.890;3.932;2024-01-30T13:00:06;3.20;;;1.17;;
85670;SDS011;76102;50.890;3.932;2024-01-30T13:02:35;2.83;;;1.40;;
85670;SDS011;76102;50.890;3.932;2024-01-30T13:05:07;2.75;;;1.30;;
85670;SDS011;76102;50.890;3.932;2024-01-30T13:07:35;2.10;;;1.20;;
85670;SDS011;76102;50.890;3.932;2024-01-30T13:10:03;4.57;;;1.73;;
85670;SDS011;76102;50.890;3.932;2024-01-30T13:12:31;1.33;;;1.23;;
85670;SDS011;76102;50.890;3.932;2024-01-30T13:14:58;2.47;;;1.35;;
85670;SDS011;76102;50.890;3.932;2024-01-30T13:17:27;3.35;;;1.67;;
85670;SDS011;76102;50.890;3.932;2024-01-30T13:22:21;3.83;;;1.10;;
85670;SDS011;76102;50.890;3.932;2024-01-30T13:24:51;5.38;;;1.70;;
85670;SDS011;76102;50.890;3.932;2024-01-30T13:27:17;5.22;;;2.13;;
85670;SDS011;76102;50.890;3.932;2024-01-30T13:29:44;2.47;;;1.63;;
85670;SDS011;76102;50.890;3.932;2024-01-30T13:32:12;3.13;;;2.10;;
85670;SDS011;76102;50.890;3.932;2024-01-30T13:34:38;4.30;;;2.28;;
85670;SDS011;76102;50.890;3.932;2024-01-30T13:37:08;4.55;;;2.17;;
85670;SDS011;76102;50.890;3.932;2024-01-30T13:39:41;4.30;;;1.58;;
85670;SDS011;76102;50.890;3.932;2024-01-30T13:42:09;6.53;;;2.50;;
85670;SDS011;76102;50.890;3.932;2024-01-30T13:47:03;2.70;;;1.70;;
85670;SDS011;76102;50.890;3.932;2024-01-30T13:49:31;2.70;;;1.48;;
85670;SDS011;76102;50.890;3.932;2024-01-30T13:51:57;4.90;;;1.27;;
85670;SDS011;76102;50.890;3.932;2024-01-30T13:54:23;4.93;;;1.70;;
85670;SDS011;76102;50.890;3.932;2024-01-30T13:56:49;4.55;;;1.60;;
85670;SDS011;76102;50.890;3.932;2024-01-30T13:59:16;2.80;;;1.60;;
85670;SDS011;76102;50.890;3.932;2024-01-30T14:01:48;3.78;;;1.50;;
85670;SDS011;76102;50.890;3.932;2024-01-30T14:04:16;2.95;;;1.45;;
85670;SDS011;76102;50.890;3.932;2024-01-30T14:06:44;3.17;;;1.20;;
85670;SDS011;76102;50.890;3.932;2024-01-30T14:09:10;4.13;;;1.23;;
85670;SDS011;76102;50.890;3.932;2024-01-30T14:11:36;4.72;;;1.35;;
85670;SDS011;76102;50.890;3.932;2024-01-30T14:14:01;4.22;;;1.30;;
85670;SDS011;76102;50.890;3.932;2024-01-30T14:16:29;4.68;;;1.77;;
85670;SDS011;76102;50.890;3.932;2024-01-30T14:18:55;3.80;;;1.85;;
85670;SDS011;76102;50.890;3.932;2024-01-30T14:21:20;2.67;;;1.75;;
85670;SDS011;76102;50.890;3.932;2024-01-30T14:23:46;1.77;;;1.50;;
85670;SDS011;76102;50.890;3.932;2024-01-30T14:26:14;4.07;;;1.88;;
85670;SDS011;76102;50.890;3.932;2024-01-30T14:28:39;2.25;;;1.48;;
85670;SDS011;76102;50.890;3.932;2024-01-30T14:31:11;3.08;;;1.42;;
85670;SDS011;76102;50.890;3.932;2024-01-30T14:33:36;1.95;;;1.45;;
85670;SDS011;76102;50.890;3.932;2024-01-30T14:36:02;1.38;;;1.00;;
85670;SDS011;76102;50.890;3.932;2024-01-30T14:38:34;2.38;;;1.30;;
85670;SDS011;76102;50.890;3.932;2024-01-30T14:41:00;1.48;;;1.00;;
85670;SDS011;76102;50.890;3.932;2024-01-30T14:43:25;11.65;;;1.17;;
85670;SDS011;76102;50.890;3.932;2024-01-30T14:45:56;1.92;;;1.10;;
85670;SDS011;76102;50.890;3.932;2024-01-30T14:48:23;4.32;;;1.35;;
85670;SDS011;76102;50.890;3.932;2024-01-30T14:50:50;2.72;;;1.00;;
85670;SDS011;76102;50.890;3.932;2024-01-30T14:53:16;5.22;;;1.27;;
85670;SDS011;76102;50.890;3.932;2024-01-30T14:55:44;2.85;;;1.27;;
85670;SDS011;76102;50.890;3.932;2024-01-30T14:58:12;3.08;;;1.40;;